createdAt,value
2019-03-20T00:00:05.022Z,7.05
2019-03-20T00:05:12.583Z,7.09
2019-03-20T00:10:20.287Z,6.98
2019-03-20T00:15:27.898Z,6.84
2019-03-20T00:20:35.574Z,6.83
2019-03-20T00:25:43.146Z,6.67
2019-03-20T00:30:50.798Z,7.07
2019-03-20T00:35:58.409Z,7.32
2019-03-20T00:41:06.055Z,7.31
2019-03-20T00:46:13.691Z,7.38
2019-03-20T00:51:21.328Z,7.63
2019-03-20T00:56:28.911Z,8.13
2019-03-20T01:01:36.539Z,8.15
2019-03-20T01:06:44.151Z,7.33
2019-03-20T01:11:51.803Z,7.49
2019-03-20T01:16:59.666Z,7.63
2019-03-20T01:22:07.444Z,7.32
2019-03-20T01:27:15.039Z,7.56
2019-03-20T01:32:22.756Z,7.66
2019-03-20T01:37:30.339Z,7.60
2019-03-20T01:42:38.219Z,7.57
2019-03-20T01:47:45.819Z,7.46
2019-03-20T01:52:53.479Z,8.33
2019-03-20T01:58:01.071Z,7.62
2019-03-20T02:03:08.904Z,7.71
2019-03-20T02:08:16.518Z,7.75
2019-03-20T02:13:24.185Z,7.32
2019-03-20T02:18:31.808Z,8.27
2019-03-20T02:23:39.461Z,8.25
2019-03-20T02:28:47.104Z,7.67
2019-03-20T02:33:54.806Z,7.40
2019-03-20T02:39:02.411Z,7.80
2019-03-20T02:44:10.091Z,7.61
2019-03-20T02:49:17.692Z,7.88
2019-03-20T02:54:25.452Z,7.84
2019-03-20T02:59:33.002Z,8.10
2019-03-20T03:04:40.699Z,7.91
2019-03-20T03:09:48.325Z,7.23
2019-03-20T03:14:56.010Z,8.13
2019-03-20T03:20:03.574Z,7.49
2019-03-20T03:25:11.314Z,7.56
2019-03-20T03:30:19.002Z,7.19
2019-03-20T03:35:26.628Z,7.48
2019-03-20T03:40:34.208Z,7.26
2019-03-20T03:45:41.829Z,7.68
2019-03-20T03:50:49.675Z,7.07
2019-03-20T03:55:57.369Z,7.66
2019-03-20T04:01:04.968Z,7.36
2019-03-20T04:06:12.642Z,7.44
2019-03-20T04:11:20.272Z,8.07
2019-03-20T04:16:27.942Z,7.81
2019-03-20T04:21:35.553Z,7.85
2019-03-20T04:26:43.166Z,7.32
2019-03-20T04:31:50.797Z,7.67
2019-03-20T04:36:58.465Z,8.24
2019-03-20T04:42:06.107Z,7.62
2019-03-20T04:47:13.747Z,7.54
2019-03-20T04:52:21.335Z,8.59
2019-03-20T04:57:28.976Z,8.61
2019-03-20T05:02:36.589Z,8.10
2019-03-20T05:07:44.297Z,8.37
2019-03-20T05:12:51.933Z,7.69
2019-03-20T05:17:59.570Z,7.39
2019-03-20T05:23:08.517Z,7.18
2019-03-20T05:28:14.345Z,7.51
2019-03-20T05:33:21.955Z,7.30
2019-03-20T05:38:29.615Z,7.00
2019-03-20T05:43:37.246Z,7.21
2019-03-20T05:48:44.947Z,7.45
2019-03-20T05:53:52.634Z,7.35
2019-03-20T05:59:00.336Z,7.13
2019-03-20T06:04:07.948Z,6.53
2019-03-20T06:09:15.660Z,6.38
2019-03-20T06:14:23.269Z,6.42
2019-03-20T06:19:31.138Z,6.25
2019-03-20T06:24:38.744Z,6.72
2019-03-20T06:29:46.402Z,6.71
2019-03-20T06:34:54.190Z,6.32
2019-03-20T06:40:01.981Z,5.88
2019-03-20T06:45:09.641Z,5.81
2019-03-20T06:50:17.319Z,6.13
2019-03-20T06:55:25.007Z,5.87
2019-03-20T07:00:32.632Z,6.07
2019-03-20T07:05:40.493Z,6.15
2019-03-20T07:10:48.138Z,5.78
2019-03-20T07:15:55.731Z,5.51
2019-03-20T07:21:03.423Z,5.56
2019-03-20T07:26:11.367Z,5.93
2019-03-20T07:31:19.052Z,5.59
2019-03-20T07:36:26.657Z,5.66
2019-03-20T07:41:34.328Z,5.50
2019-03-20T07:46:41.950Z,5.94
2019-03-20T07:51:49.629Z,5.74
2019-03-20T07:56:57.257Z,5.81
2019-03-20T08:02:04.925Z,6.27
2019-03-20T08:07:12.549Z,6.06
2019-03-20T08:12:20.278Z,6.11
2019-03-20T08:17:27.871Z,5.92
2019-03-20T08:22:35.541Z,6.44
2019-03-20T08:27:43.157Z,7.35
2019-03-20T08:32:51.009Z,6.94
2019-03-20T08:37:58.639Z,6.92
2019-03-20T08:43:06.302Z,7.22
2019-03-20T08:48:13.886Z,6.84
2019-03-20T08:53:21.585Z,7.16
2019-03-20T08:58:29.617Z,7.07
2019-03-20T09:03:37.240Z,6.80
2019-03-20T09:08:44.851Z,7.02
2019-03-20T09:13:52.555Z,7.44
2019-03-20T09:19:00.143Z,7.33
2019-03-20T09:24:07.908Z,7.30
2019-03-20T09:29:18.726Z,7.08
2019-03-20T09:34:22.912Z,6.36
2019-03-20T09:39:30.514Z,6.80
2019-03-20T09:44:38.152Z,7.32
2019-03-20T09:49:45.755Z,6.83
2019-03-20T09:54:53.432Z,6.20
2019-03-20T10:00:01.009Z,6.43
2019-03-20T10:05:08.629Z,6.64
2019-03-20T10:10:16.252Z,6.34
2019-03-20T10:15:23.949Z,6.42
2019-03-20T10:20:31.589Z,6.26
2019-03-20T10:25:44.573Z,5.81
2019-03-20T10:30:46.331Z,6.17
2019-03-20T10:35:54.157Z,5.81
2019-03-20T10:41:01.762Z,6.33
2019-03-20T10:46:09.429Z,6.39
2019-03-20T10:51:17.054Z,6.21
2019-03-20T10:56:24.677Z,6.51
2019-03-20T11:01:42.019Z,7.24
2019-03-20T11:06:39.474Z,6.25
2019-03-20T11:11:47.079Z,6.13
2019-03-20T11:16:54.727Z,6.35
2019-03-20T11:22:02.345Z,6.41
2019-03-20T11:27:10.043Z,5.72
2019-03-20T11:32:17.647Z,5.61
2019-03-20T11:37:25.319Z,5.16
2019-03-20T11:42:32.791Z,5.41
2019-03-20T11:47:40.472Z,5.63
2019-03-20T11:52:48.096Z,5.57
2019-03-20T11:57:55.750Z,6.03
2019-03-20T12:03:03.380Z,5.88
2019-03-20T12:08:11.050Z,7.13
2019-03-20T12:13:18.632Z,6.35
2019-03-20T12:18:26.298Z,6.04
2019-03-20T12:23:33.956Z,5.91
2019-03-20T12:28:41.587Z,5.81
2019-03-20T12:33:49.213Z,5.76
2019-03-20T12:38:56.907Z,5.81
2019-03-20T12:44:04.533Z,6.19
2019-03-20T12:49:12.208Z,6.02
2019-03-20T12:54:20.266Z,6.01
2019-03-20T12:59:28.219Z,5.93
2019-03-20T13:04:35.821Z,5.70
2019-03-20T13:09:43.484Z,5.87
2019-03-20T13:14:51.469Z,6.10
2019-03-20T13:19:59.087Z,5.05
2019-03-20T13:25:06.679Z,4.54
2019-03-20T13:30:20.067Z,5.10
2019-03-20T13:35:21.653Z,4.90
2019-03-20T13:40:29.295Z,4.93
2019-03-20T13:45:36.910Z,4.80
2019-03-20T13:50:44.940Z,4.57
2019-03-20T13:55:52.546Z,4.55
2019-03-20T14:01:00.195Z,4.96
2019-03-20T14:06:07.818Z,4.95
2019-03-20T14:11:15.513Z,4.70
2019-03-20T14:16:23.115Z,5.14
2019-03-20T14:21:30.590Z,4.98
2019-03-20T14:26:38.225Z,4.61
2019-03-20T14:31:45.912Z,4.27
2019-03-20T14:36:53.589Z,4.68
2019-03-20T14:42:01.239Z,4.41
2019-03-20T14:47:08.830Z,4.51
2019-03-20T14:52:16.446Z,4.30
2019-03-20T14:57:24.026Z,4.37
2019-03-20T15:02:31.810Z,4.32
2019-03-20T15:07:39.443Z,4.35
2019-03-20T15:12:47.089Z,4.47
2019-03-20T15:17:54.659Z,4.47
2019-03-20T15:23:02.345Z,4.96
2019-03-20T15:28:09.972Z,4.74
2019-03-20T15:33:17.892Z,5.36
2019-03-20T15:38:38.852Z,4.63
2019-03-20T15:43:38.865Z,4.99
2019-03-20T15:48:49.874Z,5.16
2019-03-20T15:53:50.915Z,5.00
2019-03-20T15:58:51.962Z,5.62
2019-03-20T16:03:52.976Z,5.59
2019-03-20T16:08:57.346Z,5.44
2019-03-20T16:13:54.939Z,5.55
2019-03-20T16:18:52.551Z,5.48
2019-03-20T16:24:00.483Z,5.83
2019-03-20T16:29:08.164Z,5.97
2019-03-20T16:34:15.730Z,6.01
2019-03-20T16:39:23.320Z,6.45
2019-03-20T16:44:31.049Z,6.78
2019-03-20T16:49:39.060Z,7.06
2019-03-20T16:54:46.782Z,6.60
2019-03-20T16:59:54.383Z,6.39
2019-03-20T17:05:02.163Z,6.42
2019-03-20T17:10:09.745Z,6.39
2019-03-20T17:15:17.442Z,6.31
2019-03-20T17:20:25.069Z,6.42
2019-03-20T17:25:32.771Z,6.87
2019-03-20T17:30:40.406Z,7.03
2019-03-20T17:35:48.059Z,6.72
2019-03-20T17:40:55.695Z,6.75
2019-03-20T17:46:03.397Z,6.86
2019-03-20T17:51:10.975Z,6.83
2019-03-20T17:56:18.635Z,6.42
2019-03-20T18:01:26.226Z,7.30
2019-03-20T18:06:33.881Z,6.40
2019-03-20T18:11:47.494Z,5.98
2019-03-20T18:16:48.843Z,6.26
2019-03-20T18:21:56.443Z,5.48
2019-03-20T18:27:04.055Z,5.19
2019-03-20T18:32:11.660Z,5.28
2019-03-20T18:37:19.282Z,5.31
2019-03-20T18:42:26.886Z,5.60
2019-03-20T18:47:34.625Z,5.48
2019-03-20T18:52:42.220Z,5.81
2019-03-20T18:57:49.877Z,5.62
2019-03-20T19:02:57.487Z,6.00
2019-03-20T19:08:05.217Z,6.06
2019-03-20T19:13:12.861Z,6.06
2019-03-20T19:18:20.523Z,6.01
2019-03-20T19:23:28.157Z,6.42
2019-03-20T19:28:35.836Z,6.28
2019-03-20T19:33:43.525Z,6.63
2019-03-20T19:38:51.192Z,6.55
2019-03-20T19:43:58.818Z,6.17
2019-03-20T19:49:06.841Z,5.97
2019-03-20T19:54:14.686Z,5.97
2019-03-20T19:59:22.357Z,5.94
2019-03-20T20:04:30.009Z,5.97
2019-03-20T20:09:37.700Z,6.05
2019-03-20T20:14:45.421Z,6.13
2019-03-20T20:19:53.184Z,6.34
2019-03-20T20:25:01.015Z,6.31
2019-03-20T20:30:08.798Z,6.98
2019-03-20T20:35:16.406Z,7.36
2019-03-20T20:40:24.154Z,7.78
2019-03-20T20:45:31.842Z,6.79
2019-03-20T20:50:39.557Z,7.81
2019-03-20T20:55:47.177Z,7.56
2019-03-20T21:00:54.803Z,9.04
2019-03-20T21:06:02.413Z,8.72
2019-03-20T21:11:10.134Z,8.37
2019-03-20T21:16:17.792Z,8.40
2019-03-20T21:21:25.465Z,8.18
2019-03-20T21:26:33.101Z,8.61
2019-03-20T21:31:40.776Z,9.02
2019-03-20T21:36:48.416Z,8.70
2019-03-20T21:41:56.102Z,8.72
2019-03-20T21:47:03.707Z,9.25
2019-03-20T21:52:11.342Z,8.99
2019-03-20T21:57:18.939Z,8.85
2019-03-20T22:02:26.643Z,9.27
2019-03-20T22:07:34.230Z,9.27
2019-03-20T22:12:41.901Z,9.82
2019-03-20T22:17:50.933Z,9.88
2019-03-20T22:22:56.710Z,10.14
2019-03-20T22:28:04.299Z,9.81
2019-03-20T22:33:11.935Z,9.47
2019-03-20T22:38:19.537Z,9.80
2019-03-20T22:43:30.467Z,9.63
2019-03-20T22:48:34.344Z,10.54
2019-03-20T22:53:42.013Z,10.34
2019-03-20T22:58:49.645Z,10.67
2019-03-20T23:03:57.299Z,10.12
2019-03-20T23:09:04.911Z,9.97
2019-03-20T23:14:12.527Z,9.60
2019-03-20T23:19:20.150Z,9.34
2019-03-20T23:24:27.806Z,10.54
2019-03-20T23:29:35.391Z,10.55
2019-03-20T23:34:43.019Z,9.86
2019-03-20T23:39:50.613Z,9.42
2019-03-20T23:44:58.275Z,10.25
2019-03-20T23:50:05.867Z,10.10
2019-03-20T23:55:13.551Z,10.13
